createdAt,value
2022-09-16T00:02:27.149Z,10.54
2022-09-16T00:04:59.037Z,10.54
2022-09-16T00:07:32.944Z,10.51
2022-09-16T00:10:06.472Z,10.52
2022-09-16T00:12:38.588Z,10.53
2022-09-16T00:15:11.776Z,10.58
2022-09-16T00:17:43.765Z,10.65
2022-09-16T00:20:15.685Z,10.72
2022-09-16T00:22:47.648Z,10.76
2022-09-16T00:25:19.675Z,10.79
2022-09-16T00:27:51.787Z,10.75
2022-09-16T00:30:23.839Z,10.76
2022-09-16T00:32:56.188Z,10.76
2022-09-16T00:35:28.299Z,10.74
2022-09-16T00:38:00.260Z,10.74
2022-09-16T00:40:32.845Z,10.73
2022-09-16T00:43:04.910Z,10.70
2022-09-16T00:45:36.920Z,10.70
2022-09-16T00:48:12.687Z,10.72
2022-09-16T00:50:51.374Z,10.76
2022-09-16T00:53:26.262Z,10.83
2022-09-16T00:56:01.483Z,10.95
2022-09-16T00:58:45.685Z,11.09
2022-09-16T01:01:17.717Z,11.19
2022-09-16T01:03:52.687Z,11.23
2022-09-16T01:06:27.666Z,11.20
2022-09-16T01:09:00.105Z,11.14
2022-09-16T01:11:32.386Z,11.07
2022-09-16T01:14:23.513Z,10.99
2022-09-16T01:17:01.442Z,10.92
2022-09-16T01:19:36.452Z,10.84
2022-09-16T01:22:29.070Z,10.78
2022-09-16T01:25:19.051Z,10.72
2022-09-16T01:27:59.956Z,10.67
2022-09-16T01:30:56.241Z,10.66
2022-09-16T01:33:33.915Z,10.66
2022-09-16T01:36:08.809Z,10.65
2022-09-16T01:39:01.898Z,10.64
2022-09-16T01:41:54.802Z,10.63
2022-09-16T01:44:47.346Z,10.64
2022-09-16T01:47:41.527Z,10.65
2022-09-16T01:50:47.736Z,10.65
2022-09-16T01:53:25.368Z,10.63
2022-09-16T01:56:02.847Z,10.61
2022-09-16T01:58:57.021Z,10.62
2022-09-16T02:01:34.631Z,10.61
2022-09-16T02:04:15.438Z,10.61
2022-09-16T02:06:49.325Z,10.63
2022-09-16T02:09:24.305Z,10.70
2022-09-16T02:11:59.122Z,10.78
2022-09-16T02:14:33.084Z,10.89
2022-09-16T02:17:10.802Z,10.98
2022-09-16T02:19:48.754Z,11.07
2022-09-16T02:22:26.442Z,11.18
2022-09-16T02:25:01.302Z,11.31
2022-09-16T02:27:35.240Z,11.39
2022-09-16T02:30:10.565Z,11.48
2022-09-16T02:32:45.560Z,11.55
2022-09-16T02:35:20.313Z,11.60
2022-09-16T02:38:04.171Z,11.65
2022-09-16T02:40:42.241Z,11.67
2022-09-16T02:43:14.426Z,11.71
2022-09-16T02:45:55.390Z,11.75
2022-09-16T02:48:36.257Z,11.78
2022-09-16T02:51:27.519Z,11.83
2022-09-16T02:54:02.449Z,11.88
2022-09-16T02:56:37.442Z,11.90
2022-09-16T02:59:12.464Z,11.94
2022-09-16T03:01:47.432Z,11.98
2022-09-16T03:04:21.496Z,12.01
2022-09-16T03:06:53.375Z,12.04
2022-09-16T03:09:26.192Z,12.06
2022-09-16T03:12:25.308Z,12.08
2022-09-16T03:15:24.228Z,12.12
2022-09-16T03:17:59.419Z,12.21
2022-09-16T03:20:43.369Z,12.25
2022-09-16T03:23:45.554Z,12.31
2022-09-16T03:26:23.360Z,12.37
2022-09-16T03:29:18.099Z,12.43
2022-09-16T03:32:21.480Z,12.46
2022-09-16T03:34:59.300Z,12.50
2022-09-16T03:37:35.906Z,12.55
2022-09-16T03:40:11.290Z,12.58
2022-09-16T03:42:44.907Z,12.62
2022-09-16T03:45:22.363Z,12.65
2022-09-16T03:47:55.221Z,12.69
2022-09-16T03:50:27.304Z,12.73
2022-09-16T03:52:59.242Z,12.76
2022-09-16T03:55:31.521Z,12.78
2022-09-16T03:58:03.871Z,12.81
2022-09-16T04:00:37.083Z,12.82
2022-09-16T04:03:09.141Z,12.87
2022-09-16T04:05:41.218Z,12.89
2022-09-16T04:08:13.855Z,12.93
2022-09-16T04:11:00.165Z,12.95
2022-09-16T04:13:34.701Z,13.00
2022-09-16T04:16:07.176Z,13.02
2022-09-16T04:18:39.297Z,13.08
2022-09-16T04:21:11.666Z,13.12
2022-09-16T04:23:43.792Z,13.16
2022-09-16T04:26:15.819Z,13.18
2022-09-16T04:28:49.536Z,13.22
2022-09-16T04:31:22.129Z,13.28
2022-09-16T04:33:54.178Z,13.33
2022-09-16T04:36:26.213Z,13.38
2022-09-16T04:38:58.298Z,13.40
2022-09-16T04:41:30.365Z,13.43
2022-09-16T04:44:02.635Z,13.51
2022-09-16T04:46:35.144Z,13.58
2022-09-16T04:49:07.464Z,13.60
2022-09-16T04:51:39.962Z,13.63
2022-09-16T04:54:12.416Z,13.64
2022-09-16T04:56:44.453Z,13.64
2022-09-16T04:59:16.533Z,13.66
2022-09-16T05:01:48.660Z,13.65
2022-09-16T05:04:20.637Z,13.66
2022-09-16T05:06:53.039Z,13.66
2022-09-16T05:09:25.021Z,13.68
2022-09-16T05:11:57.233Z,13.68
2022-09-16T05:14:29.333Z,13.68
2022-09-16T05:17:01.842Z,13.72
2022-09-16T05:19:34.051Z,13.69
2022-09-16T05:22:08.142Z,13.70
2022-09-16T05:24:40.219Z,13.73
2022-09-16T05:27:12.169Z,13.68
2022-09-16T05:29:44.100Z,13.68
2022-09-16T05:32:16.179Z,13.82
2022-09-16T05:34:49.754Z,13.86
2022-09-16T05:37:21.726Z,13.89
2022-09-16T05:39:54.381Z,13.96
2022-09-16T05:42:26.883Z,14.03
2022-09-16T05:44:59.311Z,14.25
2022-09-16T05:47:32.791Z,14.25
2022-09-16T05:50:05.227Z,14.42
2022-09-16T05:52:37.458Z,14.61
2022-09-16T05:55:09.667Z,14.80
2022-09-16T05:57:41.680Z,14.95
2022-09-16T06:00:14.616Z,15.06
2022-09-16T06:02:48.448Z,15.08
2022-09-16T06:05:20.565Z,15.08
2022-09-16T06:07:54.114Z,15.25
2022-09-16T06:10:26.680Z,15.26
2022-09-16T06:12:58.760Z,15.24
2022-09-16T06:15:31.648Z,15.24
2022-09-16T06:18:06.577Z,15.14
2022-09-16T06:20:38.480Z,15.26
2022-09-16T06:23:10.497Z,15.28
2022-09-16T06:25:42.465Z,15.31
2022-09-16T06:28:15.080Z,15.38
2022-09-16T06:30:47.619Z,15.48
2022-09-16T06:33:19.688Z,15.64
2022-09-16T06:35:53.565Z,15.83
2022-09-16T06:38:25.987Z,16.05
2022-09-16T06:41:09.595Z,16.24
2022-09-16T06:43:41.866Z,16.42
2022-09-16T06:46:16.876Z,16.57
2022-09-16T06:48:51.349Z,16.68
2022-09-16T06:51:25.694Z,16.80
2022-09-16T06:54:03.781Z,16.89
2022-09-16T06:56:37.979Z,16.95
2022-09-16T06:59:13.044Z,17.02
2022-09-16T07:01:45.064Z,17.11
2022-09-16T07:04:17.151Z,17.22
2022-09-16T07:07:08.836Z,17.33
2022-09-16T07:09:24.811Z,17.51
2022-09-16T07:11:56.873Z,17.72
2022-09-16T07:14:32.117Z,17.91
2022-09-16T07:17:04.232Z,18.08
2022-09-16T07:19:36.822Z,18.26
2022-09-16T07:22:09.246Z,18.36
2022-09-16T07:24:41.510Z,18.48
2022-09-16T07:27:13.594Z,18.57
2022-09-16T07:29:46.086Z,18.65
2022-09-16T07:32:18.339Z,18.72
2022-09-16T07:34:50.632Z,18.75
2022-09-16T07:37:23.594Z,18.76
2022-09-16T07:39:55.858Z,18.71
2022-09-16T07:42:29.266Z,18.60
2022-09-16T07:45:01.423Z,18.45
2022-09-16T07:47:34.084Z,18.33
2022-09-16T07:50:07.232Z,18.33
2022-09-16T07:52:39.234Z,18.62
2022-09-16T07:55:12.962Z,18.98
2022-09-16T07:57:45.106Z,19.34
2022-09-16T08:00:17.315Z,19.69
2022-09-16T08:02:49.409Z,19.95
2022-09-16T08:05:21.532Z,20.19
2022-09-16T08:07:53.924Z,20.13
2022-09-16T08:10:29.198Z,19.97
2022-09-16T08:13:00.265Z,19.89
2022-09-16T08:15:32.389Z,19.90
2022-09-16T08:18:05.202Z,20.00
2022-09-16T08:20:38.581Z,20.14
2022-09-16T08:23:10.933Z,20.28
2022-09-16T08:25:42.997Z,20.41
2022-09-16T08:28:18.562Z,20.49
2022-09-16T08:30:53.210Z,20.60
2022-09-16T08:33:25.978Z,20.71
2022-09-16T08:36:10.201Z,20.79
2022-09-16T08:38:43.031Z,20.82
2022-09-16T08:41:36.452Z,20.88
2022-09-16T08:44:32.655Z,20.87
2022-09-16T08:47:08.150Z,20.90
2022-09-16T08:49:47.015Z,21.07
2022-09-16T08:52:34.276Z,21.24
2022-09-16T08:55:15.461Z,21.38
2022-09-16T08:57:56.279Z,21.55
2022-09-16T09:00:28.464Z,21.64
2022-09-16T09:03:31.978Z,21.65
2022-09-16T09:06:09.894Z,21.60
2022-09-16T09:08:44.986Z,21.49
2022-09-16T09:11:19.906Z,21.52
2022-09-16T09:14:24.009Z,21.56
2022-09-16T09:17:20.168Z,21.66
2022-09-16T09:20:01.264Z,21.80
2022-09-16T09:23:00.322Z,21.97
2022-09-16T09:25:53.620Z,22.10
2022-09-16T09:28:37.428Z,22.10
2022-09-16T09:31:21.451Z,21.94
2022-09-16T09:33:56.304Z,21.76
2022-09-16T09:36:31.452Z,21.56
2022-09-16T09:39:09.218Z,21.44
2022-09-16T09:41:53.032Z,21.39
2022-09-16T09:44:49.059Z,21.45
2022-09-16T09:47:36.321Z,21.60
2022-09-16T09:50:27.588Z,21.87
2022-09-16T09:53:14.417Z,22.03
2022-09-16T09:55:46.831Z,22.14
2022-09-16T09:58:40.504Z,22.24
2022-09-16T10:01:13.342Z,22.25
2022-09-16T10:03:45.502Z,22.28
2022-09-16T10:06:19.788Z,22.16
2022-09-16T10:08:54.660Z,21.97
2022-09-16T10:11:31.325Z,21.82
2022-09-16T10:14:05.884Z,21.71
2022-09-16T10:16:38.195Z,21.65
2022-09-16T10:19:21.303Z,21.87
2022-09-16T10:21:59.210Z,21.52
2022-09-16T10:24:36.604Z,21.37
2022-09-16T10:27:26.999Z,21.24
2022-09-16T10:30:17.132Z,21.19
2022-09-16T10:33:01.585Z,21.14
2022-09-16T10:35:36.508Z,21.00
2022-09-16T10:38:14.757Z,20.94
2022-09-16T10:40:55.429Z,20.84
2022-09-16T10:43:29.873Z,20.81
2022-09-16T10:46:02.124Z,20.70
2022-09-16T10:48:36.530Z,20.57
2022-09-16T10:51:11.492Z,20.51
2022-09-16T10:53:46.847Z,20.45
2022-09-16T10:56:22.540Z,20.40
2022-09-16T10:59:06.729Z,20.32
2022-09-16T11:01:44.676Z,20.30
2022-09-16T11:04:34.871Z,20.30
2022-09-16T11:07:15.676Z,20.27
2022-09-16T11:09:56.446Z,20.15
2022-09-16T11:12:53.984Z,20.04
2022-09-16T11:15:44.063Z,19.89
2022-09-16T11:18:35.511Z,19.74
2022-09-16T11:21:35.983Z,19.62
2022-09-16T11:24:28.829Z,19.47
2022-09-16T11:27:31.076Z,19.40
2022-09-16T11:30:17.879Z,19.37
2022-09-16T11:33:07.755Z,19.32
2022-09-16T11:35:59.349Z,19.30
2022-09-16T11:38:50.790Z,19.24
2022-09-16T11:41:48.320Z,19.16
2022-09-16T11:44:47.073Z,19.14
2022-09-16T11:47:21.808Z,19.23
2022-09-16T11:50:08.660Z,19.43
2022-09-16T11:53:01.438Z,19.58
2022-09-16T11:55:41.086Z,19.71
2022-09-16T11:58:51.060Z,19.73
2022-09-16T12:01:42.766Z,19.91
2022-09-16T12:04:17.899Z,20.13
2022-09-16T12:06:53.647Z,20.26
2022-09-16T12:09:34.492Z,20.42
2022-09-16T12:12:12.173Z,20.33
2022-09-16T12:14:53.694Z,20.11
2022-09-16T12:17:28.545Z,19.86
2022-09-16T12:20:06.457Z,19.58
2022-09-16T12:22:47.304Z,19.32
2022-09-16T12:25:22.604Z,19.06
2022-09-16T12:28:00.362Z,18.80
2022-09-16T12:30:41.326Z,18.63
2022-09-16T12:33:19.833Z,18.44
2022-09-16T12:36:06.747Z,18.27
2022-09-16T12:38:40.211Z,18.13
2022-09-16T12:41:33.161Z,17.98
2022-09-16T12:44:36.835Z,17.85
2022-09-16T12:47:18.152Z,17.73
2022-09-16T12:50:05.241Z,17.58
2022-09-16T12:52:52.321Z,17.49
2022-09-16T12:55:33.264Z,17.33
2022-09-16T12:58:14.220Z,17.19
2022-09-16T13:01:16.670Z,17.05
2022-09-16T13:03:58.359Z,16.95
2022-09-16T13:06:33.768Z,16.85
2022-09-16T13:09:40.339Z,16.78
2022-09-16T13:12:39.174Z,16.71
2022-09-16T13:15:07.437Z,16.66
2022-09-16T13:17:41.688Z,16.60
2022-09-16T13:20:14.714Z,16.56
2022-09-16T13:22:49.646Z,16.80
2022-09-16T13:25:36.658Z,16.59
2022-09-16T13:28:28.548Z,16.53
2022-09-16T13:31:18.768Z,16.49
2022-09-16T13:33:59.997Z,16.42
2022-09-16T13:36:34.123Z,16.38
2022-09-16T13:39:09.220Z,16.24
2022-09-16T13:41:48.152Z,16.24
2022-09-16T13:44:42.356Z,16.13
2022-09-16T13:47:22.901Z,16.06
2022-09-16T13:50:12.171Z,16.00
2022-09-16T13:52:47.231Z,15.97
2022-09-16T13:55:24.103Z,15.90
2022-09-16T13:58:32.646Z,15.86
2022-09-16T14:01:15.340Z,15.79
2022-09-16T14:04:23.123Z,15.72
2022-09-16T14:07:23.589Z,15.67
2022-09-16T14:10:16.909Z,15.60
2022-09-16T14:13:11.245Z,15.57
2022-09-16T14:15:46.957Z,15.55
2022-09-16T14:18:24.222Z,15.54
2022-09-16T14:21:02.407Z,15.50
2022-09-16T14:23:36.530Z,15.44
2022-09-16T14:26:15.342Z,15.42
2022-09-16T14:28:48.651Z,15.37
2022-09-16T14:31:27.042Z,15.34
2022-09-16T14:34:05.311Z,15.34
2022-09-16T14:36:44.517Z,15.31
2022-09-16T14:39:20.373Z,15.28
2022-09-16T14:41:56.046Z,15.19
2022-09-16T14:44:46.985Z,15.13
2022-09-16T14:47:39.709Z,14.91
2022-09-16T14:50:04.467Z,14.91
2022-09-16T14:52:37.953Z,14.98
2022-09-16T14:55:23.202Z,14.91
2022-09-16T14:57:57.725Z,14.83
2022-09-16T15:00:33.357Z,14.80
2022-09-16T15:03:20.205Z,14.74
2022-09-16T15:05:59.281Z,14.69
2022-09-16T15:08:47.333Z,14.65
2022-09-16T15:11:48.651Z,14.66
2022-09-16T15:14:14.749Z,14.64
2022-09-16T15:16:50.252Z,14.63
2022-09-16T15:19:31.257Z,14.62
2022-09-16T15:22:11.606Z,14.50
2022-09-16T15:24:46.133Z,14.56
2022-09-16T15:27:31.799Z,14.56
2022-09-16T15:30:06.047Z,14.52
2022-09-16T15:32:39.521Z,14.48
2022-09-16T15:35:27.116Z,14.63
2022-09-16T15:37:59.993Z,14.43
2022-09-16T15:40:36.124Z,14.39
2022-09-16T15:43:23.597Z,14.32
2022-09-16T15:46:02.259Z,14.32
2022-09-16T15:48:38.412Z,14.15
2022-09-16T15:51:14.239Z,14.15
2022-09-16T15:53:50.539Z,14.00
2022-09-16T15:56:26.399Z,14.13
2022-09-16T15:59:13.824Z,14.11
2022-09-16T16:01:53.443Z,14.11
2022-09-16T16:04:36.472Z,14.09
2022-09-16T16:07:09.109Z,14.11
2022-09-16T16:09:44.616Z,14.08
2022-09-16T16:12:19.067Z,14.07
2022-09-16T16:14:51.951Z,14.06
2022-09-16T16:17:28.762Z,14.09
2022-09-16T16:20:03.509Z,14.09
2022-09-16T16:22:36.449Z,14.08
2022-09-16T16:25:10.264Z,14.09
2022-09-16T16:27:42.863Z,14.01
2022-09-16T16:30:16.094Z,14.25
2022-09-16T16:32:50.848Z,14.16
2022-09-16T16:35:28.486Z,14.15
2022-09-16T16:38:00.844Z,14.15
2022-09-16T16:40:34.499Z,14.15
2022-09-16T16:43:07.075Z,14.18
2022-09-16T16:45:41.599Z,14.18
2022-09-16T16:48:20.565Z,14.21
2022-09-16T16:51:02.074Z,14.22
2022-09-16T16:53:35.886Z,14.22
2022-09-16T16:56:14.876Z,14.19
2022-09-16T16:58:47.516Z,14.24
2022-09-16T17:01:21.472Z,14.29
2022-09-16T17:03:53.917Z,14.31
2022-09-16T17:06:27.032Z,14.31
2022-09-16T17:09:00.241Z,14.30
2022-09-16T17:11:34.297Z,14.30
2022-09-16T17:14:08.980Z,14.33
2022-09-16T17:16:43.793Z,14.33
2022-09-16T17:19:18.899Z,14.33
2022-09-16T17:21:54.672Z,14.20
2022-09-16T17:24:27.688Z,14.20
2022-09-16T17:27:00.504Z,14.30
2022-09-16T17:29:33.675Z,14.33
2022-09-16T17:32:08.802Z,14.28
2022-09-16T17:34:44.617Z,14.28
2022-09-16T17:37:20.161Z,14.34
2022-09-16T17:39:54.771Z,14.38
2022-09-16T17:42:28.100Z,14.36
2022-09-16T17:45:03.414Z,14.36
2022-09-16T17:47:38.810Z,14.36
2022-09-16T17:50:13.018Z,14.36
2022-09-16T17:52:46.723Z,14.40
2022-09-16T17:55:19.377Z,14.37
2022-09-16T17:57:52.604Z,14.41
2022-09-16T18:00:25.488Z,14.46
2022-09-16T18:02:58.321Z,14.52
2022-09-16T18:05:33.585Z,14.53
2022-09-16T18:08:07.948Z,14.59
2022-09-16T18:10:40.368Z,14.57
2022-09-16T18:13:12.598Z,14.76
2022-09-16T18:15:45.648Z,14.63
2022-09-16T18:18:18.458Z,14.49
2022-09-16T18:20:56.837Z,14.49
2022-09-16T18:23:29.054Z,14.41
2022-09-16T18:26:10.201Z,14.28
2022-09-16T18:29:08.600Z,14.16
2022-09-16T18:31:24.820Z,14.16
2022-09-16T18:33:57.928Z,14.12
2022-09-16T18:36:31.035Z,14.12
2022-09-16T18:39:11.230Z,13.92
2022-09-16T18:41:45.919Z,13.92
2022-09-16T18:44:26.006Z,13.97
2022-09-16T18:46:58.505Z,14.07
2022-09-16T18:49:31.790Z,14.04
2022-09-16T18:52:05.029Z,14.02
2022-09-16T18:54:38.085Z,14.00
2022-09-16T18:57:12.986Z,13.98
2022-09-16T18:59:45.978Z,14.17
2022-09-16T19:02:18.188Z,14.05
2022-09-16T19:04:55.148Z,13.98
2022-09-16T19:07:28.248Z,13.92
2022-09-16T19:10:00.708Z,13.89
2022-09-16T19:12:38.449Z,13.94
2022-09-16T19:15:09.329Z,13.94
2022-09-16T19:17:42.604Z,14.01
2022-09-16T19:20:15.195Z,14.01
2022-09-16T19:22:48.030Z,14.06
2022-09-16T19:25:22.834Z,14.06
2022-09-16T19:27:55.137Z,14.06
2022-09-16T19:30:27.426Z,14.06
2022-09-16T19:33:01.265Z,14.06
2022-09-16T19:35:34.579Z,13.94
2022-09-16T19:38:07.348Z,14.11
2022-09-16T19:40:39.599Z,13.91
2022-09-16T19:43:12.445Z,13.91
2022-09-16T19:45:44.859Z,13.98
2022-09-16T19:48:18.033Z,13.97
2022-09-16T19:50:53.909Z,13.93
2022-09-16T19:53:25.919Z,13.89
2022-09-16T19:55:59.638Z,13.89
2022-09-16T19:58:33.444Z,13.79
2022-09-16T20:01:08.898Z,13.93
2022-09-16T20:03:44.287Z,13.92
2022-09-16T20:06:24.973Z,13.91
2022-09-16T20:08:59.896Z,13.93
2022-09-16T20:11:35.006Z,13.93
2022-09-16T20:14:09.626Z,13.94
2022-09-16T20:16:42.244Z,14.09
2022-09-16T20:19:16.235Z,13.95
2022-09-16T20:21:48.701Z,13.88
2022-09-16T20:24:23.692Z,13.85
2022-09-16T20:26:57.434Z,13.80
2022-09-16T20:29:30.931Z,13.76
2022-09-16T20:32:03.211Z,13.72
2022-09-16T20:34:37.409Z,13.72
2022-09-16T20:37:10.336Z,13.68
2022-09-16T20:39:44.977Z,13.63
2022-09-16T20:42:17.336Z,13.59
2022-09-16T20:44:49.780Z,13.51
2022-09-16T20:47:22.338Z,13.44
2022-09-16T20:49:54.482Z,13.38
2022-09-16T20:52:27.062Z,13.30
2022-09-16T20:55:02.690Z,13.30
2022-09-16T20:57:35.506Z,13.31
2022-09-16T21:00:08.314Z,13.33
2022-09-16T21:02:40.841Z,13.31
2022-09-16T21:05:13.423Z,13.31
2022-09-16T21:07:45.752Z,13.33
2022-09-16T21:10:18.375Z,13.34
2022-09-16T21:12:51.179Z,13.35
2022-09-16T21:15:24.934Z,13.37
2022-09-16T21:17:57.139Z,13.38
2022-09-16T21:20:31.011Z,13.42
2022-09-16T21:23:04.353Z,13.46
2022-09-16T21:25:36.644Z,13.53
2022-09-16T21:28:08.900Z,13.60
2022-09-16T21:30:41.076Z,13.63
2022-09-16T21:33:14.588Z,13.67
2022-09-16T21:35:54.126Z,13.70
2022-09-16T21:38:28.323Z,13.72
2022-09-16T21:41:02.988Z,13.73
2022-09-16T21:43:38.149Z,13.75
2022-09-16T21:46:14.099Z,13.73
2022-09-16T21:48:46.313Z,13.76
2022-09-16T21:51:20.270Z,13.78
2022-09-16T21:53:52.279Z,13.86
2022-09-16T21:56:24.896Z,13.85
2022-09-16T21:58:58.437Z,13.86
2022-09-16T22:01:31.746Z,13.89
2022-09-16T22:04:06.621Z,13.91
2022-09-16T22:06:38.484Z,13.90
2022-09-16T22:09:11.858Z,13.90
2022-09-16T22:11:44.394Z,13.85
2022-09-16T22:14:16.480Z,13.77
2022-09-16T22:16:48.405Z,13.74
2022-09-16T22:19:21.020Z,13.70
2022-09-16T22:21:53.093Z,13.67
2022-09-16T22:24:25.292Z,13.58
2022-09-16T22:26:57.478Z,13.48
2022-09-16T22:29:29.422Z,13.39
2022-09-16T22:32:03.034Z,13.29
2022-09-16T22:34:36.929Z,13.17
2022-09-16T22:37:10.691Z,13.08
2022-09-16T22:39:42.718Z,12.98
2022-09-16T22:42:14.767Z,12.90
2022-09-16T22:44:47.007Z,12.83
2022-09-16T22:47:19.275Z,12.88
2022-09-16T22:49:51.290Z,12.88
2022-09-16T22:52:23.561Z,12.98
2022-09-16T22:54:55.722Z,13.04
2022-09-16T22:57:27.710Z,13.01
2022-09-16T23:00:00.036Z,12.97
2022-09-16T23:02:33.456Z,12.94
2022-09-16T23:05:07.517Z,12.89
2022-09-16T23:07:39.942Z,12.80
2022-09-16T23:10:12.147Z,12.74
2022-09-16T23:12:44.306Z,12.67
2022-09-16T23:15:16.329Z,12.63
2022-09-16T23:17:48.437Z,12.56
2022-09-16T23:20:20.508Z,12.52
2022-09-16T23:22:52.531Z,12.48
2022-09-16T23:25:24.781Z,12.46
2022-09-16T23:27:56.672Z,12.48
2022-09-16T23:30:28.632Z,12.52
2022-09-16T23:33:00.611Z,12.52
2022-09-16T23:35:32.602Z,12.50
2022-09-16T23:38:04.578Z,12.43
2022-09-16T23:40:38.323Z,12.39
2022-09-16T23:43:10.306Z,12.36
2022-09-16T23:45:42.945Z,12.36
2022-09-16T23:48:15.312Z,12.29
2022-09-16T23:50:47.265Z,12.28
2022-09-16T23:53:19.318Z,12.26
2022-09-16T23:55:51.286Z,12.26
2022-09-16T23:58:23.435Z,12.20
